sensor_id;sensor_type;location;lat;lon;timestamp;P1;durP1;ratioP1;P2;durP2;ratioP2
69197;SDS011;56311;50.298;8.514;2023-03-01T00:02:24;18.75;;;10.85;;
69197;SDS011;56311;50.298;8.514;2023-03-01T00:04:51;15.43;;;10.05;;
69197;SDS011;56311;50.298;8.514;2023-03-01T00:07:18;17.48;;;9.68;;
69197;SDS011;56311;50.298;8.514;2023-03-01T00:09:44;19.90;;;10.63;;
69197;SDS011;56311;50.298;8.514;2023-03-01T00:12:12;21.42;;;11.82;;
69197;SDS011;56311;50.298;8.514;2023-03-01T00:14:38;17.58;;;10.18;;
69197;SDS011;56311;50.298;8.514;2023-03-01T00:17:06;19.38;;;10.95;;
69197;SDS011;56311;50.298;8.514;2023-03-01T00:19:33;17.00;;;10.45;;
69197;SDS011;56311;50.298;8.514;2023-03-01T00:22:00;17.23;;;10.25;;
69197;SDS011;56311;50.298;8.514;2023-03-01T00:24:26;19.20;;;10.93;;
69197;SDS011;56311;50.298;8.514;2023-03-01T00:26:53;18.70;;;10.90;;
69197;SDS011;56311;50.298;8.514;2023-03-01T00:29:21;17.42;;;10.02;;
69197;SDS011;56311;50.298;8.514;2023-03-01T00:31:48;17.10;;;9.55;;
69197;SDS011;56311;50.298;8.514;2023-03-01T00:34:15;19.73;;;10.70;;
69197;SDS011;56311;50.298;8.514;2023-03-01T00:36:42;17.90;;;10.02;;
69197;SDS011;56311;50.298;8.514;2023-03-01T00:39:10;22.42;;;11.27;;
69197;SDS011;56311;50.298;8.514;2023-03-01T00:41:37;17.02;;;10.65;;
69197;SDS011;56311;50.298;8.514;2023-03-01T00:44:03;17.63;;;10.60;;
69197;SDS011;56311;50.298;8.514;2023-03-01T00:46:30;20.10;;;10.43;;
69197;SDS011;56311;50.298;8.514;2023-03-01T00:48:57;20.40;;;11.35;;
69197;SDS011;56311;50.298;8.514;2023-03-01T00:51:26;16.83;;;10.30;;
69197;SDS011;56311;50.298;8.514;2023-03-01T00:53:53;21.65;;;10.55;;
69197;SDS011;56311;50.298;8.514;2023-03-01T00:56:20;18.65;;;10.70;;
69197;SDS011;56311;50.298;8.514;2023-03-01T00:58:47;20.17;;;11.10;;
69197;SDS011;56311;50.298;8.514;2023-03-01T01:01:15;16.88;;;11.05;;
69197;SDS011;56311;50.298;8.514;2023-03-01T01:03:45;15.93;;;9.73;;
69197;SDS011;56311;50.298;8.514;2023-03-01T01:06:16;20.08;;;10.95;;
69197;SDS011;56311;50.298;8.514;2023-03-01T01:08:44;19.08;;;10.57;;
69197;SDS011;56311;50.298;8.514;2023-03-01T01:11:11;18.40;;;11.02;;
69197;SDS011;56311;50.298;8.514;2023-03-01T01:13:37;17.52;;;10.77;;
69197;SDS011;56311;50.298;8.514;2023-03-01T01:16:05;18.60;;;11.00;;
69197;SDS011;56311;50.298;8.514;2023-03-01T01:18:31;18.17;;;10.63;;
69197;SDS011;56311;50.298;8.514;2023-03-01T01:21:02;19.92;;;11.02;;
69197;SDS011;56311;50.298;8.514;2023-03-01T01:23:29;16.85;;;10.60;;
69197;SDS011;56311;50.298;8.514;2023-03-01T01:25:56;20.10;;;11.93;;
69197;SDS011;56311;50.298;8.514;2023-03-01T01:28:23;17.70;;;11.25;;
69197;SDS011;56311;50.298;8.514;2023-03-01T01:30:50;20.80;;;11.32;;
69197;SDS011;56311;50.298;8.514;2023-03-01T01:33:16;19.10;;;11.75;;
69197;SDS011;56311;50.298;8.514;2023-03-01T01:35:44;22.05;;;12.35;;
69197;SDS011;56311;50.298;8.514;2023-03-01T01:38:11;19.13;;;11.75;;
69197;SDS011;56311;50.298;8.514;2023-03-01T01:40:42;20.77;;;11.50;;
69197;SDS011;56311;50.298;8.514;2023-03-01T01:43:12;19.63;;;11.18;;
69197;SDS011;56311;50.298;8.514;2023-03-01T01:45:42;20.80;;;11.40;;
69197;SDS011;56311;50.298;8.514;2023-03-01T01:48:10;19.73;;;11.38;;
69197;SDS011;56311;50.298;8.514;2023-03-01T01:50:39;21.70;;;11.75;;
69197;SDS011;56311;50.298;8.514;2023-03-01T01:53:07;18.90;;;10.70;;
69197;SDS011;56311;50.298;8.514;2023-03-01T01:55:35;20.70;;;11.13;;
69197;SDS011;56311;50.298;8.514;2023-03-01T01:58:04;17.77;;;10.88;;
69197;SDS011;56311;50.298;8.514;2023-03-01T02:00:32;19.38;;;10.85;;
69197;SDS011;56311;50.298;8.514;2023-03-01T02:02:59;17.63;;;10.77;;
69197;SDS011;56311;50.298;8.514;2023-03-01T02:05:28;19.42;;;11.15;;
69197;SDS011;56311;50.298;8.514;2023-03-01T02:07:58;21.75;;;10.82;;
69197;SDS011;56311;50.298;8.514;2023-03-01T02:10:25;21.25;;;11.90;;
69197;SDS011;56311;50.298;8.514;2023-03-01T02:12:53;17.23;;;11.00;;
69197;SDS011;56311;50.298;8.514;2023-03-01T02:15:23;22.88;;;11.88;;
69197;SDS011;56311;50.298;8.514;2023-03-01T02:17:51;18.27;;;10.98;;
69197;SDS011;56311;50.298;8.514;2023-03-01T02:20:20;19.70;;;10.82;;
69197;SDS011;56311;50.298;8.514;2023-03-01T02:22:48;20.92;;;12.05;;
69197;SDS011;56311;50.298;8.514;2023-03-01T02:25:27;20.08;;;11.60;;
69197;SDS011;56311;50.298;8.514;2023-03-01T02:27:54;22.52;;;11.88;;
69197;SDS011;56311;50.298;8.514;2023-03-01T02:30:26;17.05;;;11.23;;
69197;SDS011;56311;50.298;8.514;2023-03-01T02:32:54;20.33;;;11.27;;
69197;SDS011;56311;50.298;8.514;2023-03-01T02:35:29;20.67;;;10.90;;
69197;SDS011;56311;50.298;8.514;2023-03-01T02:37:57;19.98;;;12.02;;
69197;SDS011;56311;50.298;8.514;2023-03-01T02:40:27;19.52;;;11.43;;
69197;SDS011;56311;50.298;8.514;2023-03-01T02:42:55;19.80;;;11.18;;
69197;SDS011;56311;50.298;8.514;2023-03-01T02:45:22;18.52;;;10.65;;
69197;SDS011;56311;50.298;8.514;2023-03-01T02:47:52;18.35;;;11.65;;
69197;SDS011;56311;50.298;8.514;2023-03-01T02:50:23;20.83;;;11.55;;
69197;SDS011;56311;50.298;8.514;2023-03-01T02:52:53;22.52;;;12.05;;
69197;SDS011;56311;50.298;8.514;2023-03-01T02:55:22;35.03;;;17.88;;
69197;SDS011;56311;50.298;8.514;2023-03-01T02:57:49;32.78;;;16.08;;
69197;SDS011;56311;50.298;8.514;2023-03-01T03:00:18;30.35;;;15.65;;
69197;SDS011;56311;50.298;8.514;2023-03-01T03:02:46;31.70;;;15.93;;
69197;SDS011;56311;50.298;8.514;2023-03-01T03:05:16;31.73;;;15.73;;
69197;SDS011;56311;50.298;8.514;2023-03-01T03:07:44;26.80;;;15.70;;
69197;SDS011;56311;50.298;8.514;2023-03-01T03:10:12;27.15;;;14.70;;
69197;SDS011;56311;50.298;8.514;2023-03-01T03:12:38;23.02;;;13.23;;
69197;SDS011;56311;50.298;8.514;2023-03-01T03:15:06;26.60;;;14.05;;
69197;SDS011;56311;50.298;8.514;2023-03-01T03:17:35;28.45;;;14.75;;
69197;SDS011;56311;50.298;8.514;2023-03-01T03:20:02;20.58;;;12.20;;
69197;SDS011;56311;50.298;8.514;2023-03-01T03:22:31;19.80;;;12.88;;
69197;SDS011;56311;50.298;8.514;2023-03-01T03:25:00;21.50;;;12.55;;
69197;SDS011;56311;50.298;8.514;2023-03-01T03:27:27;22.45;;;12.55;;
69197;SDS011;56311;50.298;8.514;2023-03-01T03:29:54;23.95;;;12.82;;
69197;SDS011;56311;50.298;8.514;2023-03-01T03:32:20;19.80;;;12.13;;
69197;SDS011;56311;50.298;8.514;2023-03-01T03:34:47;22.38;;;12.70;;
69197;SDS011;56311;50.298;8.514;2023-03-01T03:37:14;22.85;;;13.13;;
69197;SDS011;56311;50.298;8.514;2023-03-01T03:40:02;23.25;;;12.85;;
69197;SDS011;56311;50.298;8.514;2023-03-01T03:42:29;23.27;;;13.20;;
69197;SDS011;56311;50.298;8.514;2023-03-01T03:44:56;21.52;;;12.82;;
69197;SDS011;56311;50.298;8.514;2023-03-01T03:47:22;21.10;;;12.20;;
69197;SDS011;56311;50.298;8.514;2023-03-01T03:49:49;20.25;;;12.38;;
69197;SDS011;56311;50.298;8.514;2023-03-01T03:52:15;23.83;;;13.18;;
69197;SDS011;56311;50.298;8.514;2023-03-01T03:54:42;20.52;;;12.70;;
69197;SDS011;56311;50.298;8.514;2023-03-01T03:57:10;21.70;;;13.07;;
69197;SDS011;56311;50.298;8.514;2023-03-01T03:59:36;21.50;;;13.43;;
69197;SDS011;56311;50.298;8.514;2023-03-01T04:02:03;22.48;;;13.50;;
69197;SDS011;56311;50.298;8.514;2023-03-01T04:04:29;22.48;;;13.02;;
69197;SDS011;56311;50.298;8.514;2023-03-01T04:06:56;24.95;;;13.20;;
69197;SDS011;56311;50.298;8.514;2023-03-01T04:09:22;24.50;;;13.20;;
69197;SDS011;56311;50.298;8.514;2023-03-01T04:11:49;23.25;;;12.80;;
69197;SDS011;56311;50.298;8.514;2023-03-01T04:14:17;22.83;;;13.07;;
69197;SDS011;56311;50.298;8.514;2023-03-01T04:16:44;24.20;;;12.57;;
69197;SDS011;56311;50.298;8.514;2023-03-01T04:19:10;23.00;;;13.38;;
69197;SDS011;56311;50.298;8.514;2023-03-01T04:21:37;23.13;;;13.85;;
69197;SDS011;56311;50.298;8.514;2023-03-01T04:24:04;22.92;;;13.85;;
69197;SDS011;56311;50.298;8.514;2023-03-01T04:26:30;23.67;;;14.20;;
69197;SDS011;56311;50.298;8.514;2023-03-01T04:28:57;25.52;;;14.18;;
69197;SDS011;56311;50.298;8.514;2023-03-01T04:31:25;24.25;;;13.55;;
69197;SDS011;56311;50.298;8.514;2023-03-01T04:33:52;23.40;;;13.25;;
69197;SDS011;56311;50.298;8.514;2023-03-01T04:36:20;29.45;;;13.85;;
69197;SDS011;56311;50.298;8.514;2023-03-01T04:38:47;24.27;;;14.07;;
69197;SDS011;56311;50.298;8.514;2023-03-01T04:41:14;28.98;;;14.23;;
69197;SDS011;56311;50.298;8.514;2023-03-01T04:43:41;24.05;;;13.23;;
69197;SDS011;56311;50.298;8.514;2023-03-01T04:46:09;27.33;;;14.15;;
69197;SDS011;56311;50.298;8.514;2023-03-01T04:48:41;21.85;;;13.80;;
69197;SDS011;56311;50.298;8.514;2023-03-01T04:51:08;24.17;;;13.23;;
69197;SDS011;56311;50.298;8.514;2023-03-01T04:53:35;24.17;;;13.50;;
69197;SDS011;56311;50.298;8.514;2023-03-01T04:56:05;28.50;;;14.88;;
69197;SDS011;56311;50.298;8.514;2023-03-01T04:58:31;25.70;;;14.05;;
69197;SDS011;56311;50.298;8.514;2023-03-01T05:00:58;22.75;;;13.38;;
69197;SDS011;56311;50.298;8.514;2023-03-01T05:03:25;22.88;;;13.18;;
69197;SDS011;56311;50.298;8.514;2023-03-01T05:05:53;23.67;;;13.90;;
69197;SDS011;56311;50.298;8.514;2023-03-01T05:08:19;25.55;;;13.02;;
69197;SDS011;56311;50.298;8.514;2023-03-01T05:10:48;27.40;;;13.60;;
69197;SDS011;56311;50.298;8.514;2023-03-01T05:13:15;22.63;;;13.63;;
69197;SDS011;56311;50.298;8.514;2023-03-01T05:15:47;27.75;;;14.02;;
69197;SDS011;56311;50.298;8.514;2023-03-01T05:18:14;29.35;;;13.93;;
69197;SDS011;56311;50.298;8.514;2023-03-01T05:20:41;29.02;;;13.88;;
69197;SDS011;56311;50.298;8.514;2023-03-01T05:23:09;24.10;;;13.30;;
69197;SDS011;56311;50.298;8.514;2023-03-01T05:25:35;22.40;;;13.10;;
69197;SDS011;56311;50.298;8.514;2023-03-01T05:28:07;23.50;;;13.35;;
69197;SDS011;56311;50.298;8.514;2023-03-01T05:30:35;23.20;;;13.70;;
69197;SDS011;56311;50.298;8.514;2023-03-01T05:33:02;25.98;;;13.55;;
69197;SDS011;56311;50.298;8.514;2023-03-01T05:35:29;24.88;;;13.45;;
69197;SDS011;56311;50.298;8.514;2023-03-01T05:37:55;20.77;;;12.80;;
69197;SDS011;56311;50.298;8.514;2023-03-01T05:40:23;27.20;;;14.13;;
69197;SDS011;56311;50.298;8.514;2023-03-01T05:42:52;29.15;;;14.90;;
69197;SDS011;56311;50.298;8.514;2023-03-01T05:45:19;26.33;;;14.43;;
69197;SDS011;56311;50.298;8.514;2023-03-01T05:47:46;23.77;;;13.95;;
69197;SDS011;56311;50.298;8.514;2023-03-01T05:50:14;23.90;;;14.10;;
69197;SDS011;56311;50.298;8.514;2023-03-01T05:52:45;24.48;;;14.38;;
69197;SDS011;56311;50.298;8.514;2023-03-01T05:55:12;22.25;;;13.02;;
69197;SDS011;56311;50.298;8.514;2023-03-01T05:57:40;24.33;;;13.07;;
69197;SDS011;56311;50.298;8.514;2023-03-01T06:00:07;25.70;;;13.68;;
69197;SDS011;56311;50.298;8.514;2023-03-01T06:02:34;23.38;;;13.70;;
69197;SDS011;56311;50.298;8.514;2023-03-01T06:05:00;24.63;;;13.57;;
69197;SDS011;56311;50.298;8.514;2023-03-01T06:07:27;24.38;;;13.65;;
69197;SDS011;56311;50.298;8.514;2023-03-01T06:09:54;23.88;;;14.07;;
69197;SDS011;56311;50.298;8.514;2023-03-01T06:12:20;24.10;;;14.15;;
69197;SDS011;56311;50.298;8.514;2023-03-01T06:14:48;24.13;;;14.63;;
69197;SDS011;56311;50.298;8.514;2023-03-01T06:17:15;25.55;;;14.77;;
69197;SDS011;56311;50.298;8.514;2023-03-01T06:19:41;26.95;;;15.13;;
69197;SDS011;56311;50.298;8.514;2023-03-01T06:22:08;23.75;;;13.88;;
69197;SDS011;56311;50.298;8.514;2023-03-01T06:24:35;25.25;;;13.98;;
69197;SDS011;56311;50.298;8.514;2023-03-01T06:27:01;26.17;;;14.63;;
69197;SDS011;56311;50.298;8.514;2023-03-01T06:29:28;25.33;;;14.40;;
69197;SDS011;56311;50.298;8.514;2023-03-01T06:31:56;26.05;;;14.70;;
69197;SDS011;56311;50.298;8.514;2023-03-01T06:34:22;34.08;;;15.38;;
69197;SDS011;56311;50.298;8.514;2023-03-01T06:36:49;25.52;;;14.55;;
69197;SDS011;56311;50.298;8.514;2023-03-01T06:39:15;26.67;;;14.43;;
69197;SDS011;56311;50.298;8.514;2023-03-01T06:41:43;26.13;;;15.20;;
69197;SDS011;56311;50.298;8.514;2023-03-01T06:44:10;29.42;;;16.08;;
69197;SDS011;56311;50.298;8.514;2023-03-01T06:46:37;30.15;;;16.48;;
69197;SDS011;56311;50.298;8.514;2023-03-01T06:49:06;28.70;;;16.83;;
69197;SDS011;56311;50.298;8.514;2023-03-01T06:51:35;26.85;;;15.32;;
69197;SDS011;56311;50.298;8.514;2023-03-01T06:54:03;27.50;;;14.43;;
69197;SDS011;56311;50.298;8.514;2023-03-01T06:56:30;25.20;;;14.00;;
69197;SDS011;56311;50.298;8.514;2023-03-01T06:58:57;22.73;;;12.93;;
69197;SDS011;56311;50.298;8.514;2023-03-01T07:01:24;25.13;;;14.10;;
69197;SDS011;56311;50.298;8.514;2023-03-01T07:03:50;22.60;;;13.63;;
69197;SDS011;56311;50.298;8.514;2023-03-01T07:06:18;24.38;;;14.65;;
69197;SDS011;56311;50.298;8.514;2023-03-01T07:08:45;25.40;;;13.85;;
69197;SDS011;56311;50.298;8.514;2023-03-01T07:11:12;27.83;;;15.18;;
69197;SDS011;56311;50.298;8.514;2023-03-01T07:13:38;27.40;;;15.30;;
69197;SDS011;56311;50.298;8.514;2023-03-01T07:16:05;25.52;;;13.65;;
69197;SDS011;56311;50.298;8.514;2023-03-01T07:18:32;23.52;;;13.60;;
69197;SDS011;56311;50.298;8.514;2023-03-01T07:21:03;23.55;;;13.48;;
69197;SDS011;56311;50.298;8.514;2023-03-01T07:23:31;24.58;;;14.27;;
69197;SDS011;56311;50.298;8.514;2023-03-01T07:25:57;25.13;;;14.80;;
69197;SDS011;56311;50.298;8.514;2023-03-01T07:28:24;23.83;;;14.00;;
69197;SDS011;56311;50.298;8.514;2023-03-01T07:30:51;26.27;;;14.68;;
69197;SDS011;56311;50.298;8.514;2023-03-01T07:33:17;23.55;;;13.15;;
69197;SDS011;56311;50.298;8.514;2023-03-01T07:35:44;22.55;;;14.30;;
69197;SDS011;56311;50.298;8.514;2023-03-01T07:38:11;24.88;;;13.77;;
69197;SDS011;56311;50.298;8.514;2023-03-01T07:40:39;24.13;;;14.50;;
69197;SDS011;56311;50.298;8.514;2023-03-01T07:43:05;23.00;;;13.55;;
69197;SDS011;56311;50.298;8.514;2023-03-01T07:45:32;24.30;;;13.35;;
69197;SDS011;56311;50.298;8.514;2023-03-01T07:47:58;21.33;;;12.85;;
69197;SDS011;56311;50.298;8.514;2023-03-01T07:50:25;21.15;;;13.60;;
69197;SDS011;56311;50.298;8.514;2023-03-01T07:52:52;24.73;;;14.27;;
69197;SDS011;56311;50.298;8.514;2023-03-01T07:55:19;22.90;;;13.65;;
69197;SDS011;56311;50.298;8.514;2023-03-01T07:57:47;23.25;;;14.43;;
69197;SDS011;56311;50.298;8.514;2023-03-01T08:00:14;23.80;;;13.60;;
69197;SDS011;56311;50.298;8.514;2023-03-01T08:02:41;23.05;;;13.48;;
69197;SDS011;56311;50.298;8.514;2023-03-01T08:05:08;21.88;;;14.23;;
69197;SDS011;56311;50.298;8.514;2023-03-01T08:07:35;28.75;;;13.27;;
69197;SDS011;56311;50.298;8.514;2023-03-01T08:10:02;22.58;;;13.68;;
69197;SDS011;56311;50.298;8.514;2023-03-01T08:12:28;20.95;;;13.48;;
69197;SDS011;56311;50.298;8.514;2023-03-01T08:14:56;27.35;;;14.10;;
69197;SDS011;56311;50.298;8.514;2023-03-01T08:17:23;22.75;;;13.30;;
69197;SDS011;56311;50.298;8.514;2023-03-01T08:19:49;24.75;;;12.85;;
69197;SDS011;56311;50.298;8.514;2023-03-01T08:22:16;23.95;;;13.68;;
69197;SDS011;56311;50.298;8.514;2023-03-01T08:24:42;23.10;;;13.55;;
69197;SDS011;56311;50.298;8.514;2023-03-01T08:27:09;21.55;;;13.50;;
69197;SDS011;56311;50.298;8.514;2023-03-01T08:29:36;24.20;;;13.52;;
69197;SDS011;56311;50.298;8.514;2023-03-01T08:32:04;24.55;;;13.95;;
69197;SDS011;56311;50.298;8.514;2023-03-01T08:34:31;23.42;;;13.38;;
69197;SDS011;56311;50.298;8.514;2023-03-01T08:37:00;25.70;;;13.80;;
69197;SDS011;56311;50.298;8.514;2023-03-01T08:39:26;24.02;;;13.38;;
69197;SDS011;56311;50.298;8.514;2023-03-01T08:41:53;21.48;;;13.20;;
69197;SDS011;56311;50.298;8.514;2023-03-01T08:44:20;21.60;;;13.50;;
69197;SDS011;56311;50.298;8.514;2023-03-01T08:46:47;23.23;;;12.95;;
69197;SDS011;56311;50.298;8.514;2023-03-01T08:49:18;26.98;;;12.65;;
69197;SDS011;56311;50.298;8.514;2023-03-01T08:51:45;21.63;;;12.57;;
69197;SDS011;56311;50.298;8.514;2023-03-01T08:54:12;22.15;;;13.38;;
69197;SDS011;56311;50.298;8.514;2023-03-01T08:56:39;21.27;;;13.18;;
69197;SDS011;56311;50.298;8.514;2023-03-01T08:59:06;22.65;;;12.88;;
69197;SDS011;56311;50.298;8.514;2023-03-01T09:01:32;22.60;;;12.75;;
69197;SDS011;56311;50.298;8.514;2023-03-01T09:03:59;21.15;;;12.32;;
69197;SDS011;56311;50.298;8.514;2023-03-01T09:06:27;20.20;;;12.45;;
69197;SDS011;56311;50.298;8.514;2023-03-01T09:08:56;22.02;;;12.25;;
69197;SDS011;56311;50.298;8.514;2023-03-01T09:11:23;20.08;;;13.15;;
69197;SDS011;56311;50.298;8.514;2023-03-01T09:13:49;23.52;;;12.80;;
69197;SDS011;56311;50.298;8.514;2023-03-01T09:16:17;26.15;;;13.52;;
69197;SDS011;56311;50.298;8.514;2023-03-01T09:18:48;21.77;;;12.98;;
69197;SDS011;56311;50.298;8.514;2023-03-01T09:21:15;19.13;;;12.23;;
69197;SDS011;56311;50.298;8.514;2023-03-01T09:23:46;24.70;;;12.20;;
69197;SDS011;56311;50.298;8.514;2023-03-01T09:26:14;20.40;;;11.73;;
69197;SDS011;56311;50.298;8.514;2023-03-01T09:28:42;19.75;;;12.57;;
69197;SDS011;56311;50.298;8.514;2023-03-01T09:31:10;22.70;;;12.68;;
69197;SDS011;56311;50.298;8.514;2023-03-01T09:33:39;21.63;;;12.57;;
69197;SDS011;56311;50.298;8.514;2023-03-01T09:36:07;18.65;;;10.95;;
69197;SDS011;56311;50.298;8.514;2023-03-01T09:38:34;20.38;;;11.65;;
69197;SDS011;56311;50.298;8.514;2023-03-01T09:41:02;19.10;;;11.98;;
69197;SDS011;56311;50.298;8.514;2023-03-01T09:43:29;16.73;;;11.02;;
69197;SDS011;56311;50.298;8.514;2023-03-01T09:45:59;19.48;;;11.80;;
69197;SDS011;56311;50.298;8.514;2023-03-01T09:48:27;19.80;;;11.65;;
69197;SDS011;56311;50.298;8.514;2023-03-01T09:50:55;23.48;;;11.75;;
69197;SDS011;56311;50.298;8.514;2023-03-01T09:53:23;17.52;;;11.10;;
69197;SDS011;56311;50.298;8.514;2023-03-01T09:55:51;18.80;;;11.82;;
69197;SDS011;56311;50.298;8.514;2023-03-01T09:58:39;17.83;;;11.23;;
69197;SDS011;56311;50.298;8.514;2023-03-01T10:01:17;17.10;;;10.80;;
69197;SDS011;56311;50.298;8.514;2023-03-01T10:03:51;18.20;;;10.38;;
69197;SDS011;56311;50.298;8.514;2023-03-01T10:06:23;19.00;;;10.73;;
69197;SDS011;56311;50.298;8.514;2023-03-01T10:09:02;20.42;;;10.85;;
69197;SDS011;56311;50.298;8.514;2023-03-01T10:11:31;16.98;;;11.23;;
69197;SDS011;56311;50.298;8.514;2023-03-01T10:14:01;18.58;;;10.65;;
69197;SDS011;56311;50.298;8.514;2023-03-01T10:16:33;18.02;;;11.10;;
69197;SDS011;56311;50.298;8.514;2023-03-01T10:19:03;20.38;;;11.20;;
69197;SDS011;56311;50.298;8.514;2023-03-01T10:21:31;15.50;;;10.00;;
69197;SDS011;56311;50.298;8.514;2023-03-01T10:24:07;21.30;;;10.48;;
69197;SDS011;56311;50.298;8.514;2023-03-01T10:26:39;15.80;;;10.55;;
69197;SDS011;56311;50.298;8.514;2023-03-01T10:29:14;19.05;;;10.63;;
69197;SDS011;56311;50.298;8.514;2023-03-01T10:31:41;17.45;;;10.45;;
69197;SDS011;56311;50.298;8.514;2023-03-01T10:34:14;16.00;;;10.45;;
69197;SDS011;56311;50.298;8.514;2023-03-01T10:36:41;18.92;;;11.43;;
69197;SDS011;56311;50.298;8.514;2023-03-01T10:39:12;17.35;;;10.00;;
69197;SDS011;56311;50.298;8.514;2023-03-01T10:41:40;17.98;;;10.93;;
69197;SDS011;56311;50.298;8.514;2023-03-01T10:47:01;16.38;;;9.93;;
69197;SDS011;56311;50.298;8.514;2023-03-01T10:49:28;17.20;;;10.13;;
69197;SDS011;56311;50.298;8.514;2023-03-01T10:51:54;16.73;;;11.02;;
69197;SDS011;56311;50.298;8.514;2023-03-01T10:54:22;17.42;;;10.50;;
69197;SDS011;56311;50.298;8.514;2023-03-01T10:56:49;17.40;;;11.07;;
69197;SDS011;56311;50.298;8.514;2023-03-01T10:59:22;18.98;;;10.13;;
69197;SDS011;56311;50.298;8.514;2023-03-01T11:02:02;15.45;;;10.02;;
69197;SDS011;56311;50.298;8.514;2023-03-01T11:04:41;19.30;;;10.05;;
69197;SDS011;56311;50.298;8.514;2023-03-01T11:07:22;15.90;;;9.90;;
69197;SDS011;56311;50.298;8.514;2023-03-01T11:09:48;16.52;;;10.52;;
69197;SDS011;56311;50.298;8.514;2023-03-01T11:12:16;18.38;;;10.88;;
69197;SDS011;56311;50.298;8.514;2023-03-01T11:14:46;15.50;;;10.23;;
69197;SDS011;56311;50.298;8.514;2023-03-01T11:17:15;16.60;;;9.98;;
69197;SDS011;56311;50.298;8.514;2023-03-01T11:19:43;17.48;;;10.25;;
69197;SDS011;56311;50.298;8.514;2023-03-01T11:22:28;19.85;;;10.57;;
69197;SDS011;56311;50.298;8.514;2023-03-01T11:24:55;18.48;;;10.15;;
69197;SDS011;56311;50.298;8.514;2023-03-01T11:27:36;17.58;;;9.85;;
69197;SDS011;56311;50.298;8.514;2023-03-01T11:30:06;19.15;;;9.85;;
69197;SDS011;56311;50.298;8.514;2023-03-01T11:32:38;15.95;;;9.90;;
69197;SDS011;56311;50.298;8.514;2023-03-01T11:35:09;15.25;;;9.68;;
69197;SDS011;56311;50.298;8.514;2023-03-01T11:37:37;16.33;;;9.90;;
69197;SDS011;56311;50.298;8.514;2023-03-01T11:40:13;15.45;;;9.60;;
69197;SDS011;56311;50.298;8.514;2023-03-01T11:45:23;15.85;;;9.80;;
69197;SDS011;56311;50.298;8.514;2023-03-01T11:47:58;16.23;;;9.60;;
69197;SDS011;56311;50.298;8.514;2023-03-01T11:50:29;17.63;;;9.70;;
69197;SDS011;56311;50.298;8.514;2023-03-01T11:52:59;17.88;;;9.30;;
69197;SDS011;56311;50.298;8.514;2023-03-01T11:55:30;15.85;;;9.82;;
69197;SDS011;56311;50.298;8.514;2023-03-01T11:58:03;15.80;;;9.52;;
69197;SDS011;56311;50.298;8.514;2023-03-01T12:00:44;15.32;;;9.68;;
69197;SDS011;56311;50.298;8.514;2023-03-01T12:03:19;15.90;;;9.23;;
69197;SDS011;56311;50.298;8.514;2023-03-01T12:08:52;15.90;;;9.00;;
69197;SDS011;56311;50.298;8.514;2023-03-01T12:11:28;15.98;;;8.95;;
69197;SDS011;56311;50.298;8.514;2023-03-01T12:19:31;14.48;;;8.65;;
69197;SDS011;56311;50.298;8.514;2023-03-01T12:22:04;14.10;;;7.95;;
69197;SDS011;56311;50.298;8.514;2023-03-01T12:24:39;14.13;;;8.80;;
69197;SDS011;56311;50.298;8.514;2023-03-01T12:27:17;14.63;;;9.23;;
69197;SDS011;56311;50.298;8.514;2023-03-01T12:29:46;12.48;;;8.43;;
69197;SDS011;56311;50.298;8.514;2023-03-01T12:32:20;13.57;;;8.48;;
69197;SDS011;56311;50.298;8.514;2023-03-01T12:34:59;12.38;;;8.23;;
69197;SDS011;56311;50.298;8.514;2023-03-01T12:37:29;13.20;;;8.13;;
69197;SDS011;56311;50.298;8.514;2023-03-01T12:40:15;13.07;;;8.32;;
69197;SDS011;56311;50.298;8.514;2023-03-01T12:42:48;14.50;;;9.20;;
69197;SDS011;56311;50.298;8.514;2023-03-01T12:45:28;13.82;;;8.05;;
69197;SDS011;56311;50.298;8.514;2023-03-01T12:50:37;13.90;;;7.50;;
69197;SDS011;56311;50.298;8.514;2023-03-01T12:53:05;15.05;;;7.75;;
69197;SDS011;56311;50.298;8.514;2023-03-01T12:55:33;13.40;;;7.68;;
69197;SDS011;56311;50.298;8.514;2023-03-01T12:58:02;12.57;;;7.60;;
69197;SDS011;56311;50.298;8.514;2023-03-01T13:00:35;11.57;;;7.70;;
69197;SDS011;56311;50.298;8.514;2023-03-01T13:03:09;11.40;;;7.78;;
69197;SDS011;56311;50.298;8.514;2023-03-01T13:05:41;14.88;;;7.63;;
69197;SDS011;56311;50.298;8.514;2023-03-01T13:08:13;11.63;;;6.93;;
69197;SDS011;56311;50.298;8.514;2023-03-01T13:10:43;12.25;;;7.03;;
69197;SDS011;56311;50.298;8.514;2023-03-01T13:15:42;11.75;;;7.60;;
69197;SDS011;56311;50.298;8.514;2023-03-01T13:18:28;11.30;;;7.40;;
69197;SDS011;56311;50.298;8.514;2023-03-01T13:20:56;13.07;;;8.20;;
69197;SDS011;56311;50.298;8.514;2023-03-01T13:23:26;12.52;;;8.02;;
69197;SDS011;56311;50.298;8.514;2023-03-01T13:26:00;12.70;;;7.90;;
69197;SDS011;56311;50.298;8.514;2023-03-01T13:28:38;12.05;;;7.63;;
69197;SDS011;56311;50.298;8.514;2023-03-01T13:31:07;12.63;;;7.43;;
69197;SDS011;56311;50.298;8.514;2023-03-01T13:33:41;11.25;;;7.32;;
69197;SDS011;56311;50.298;8.514;2023-03-01T13:36:11;11.77;;;7.50;;
69197;SDS011;56311;50.298;8.514;2023-03-01T13:39:00;11.98;;;7.45;;
69197;SDS011;56311;50.298;8.514;2023-03-01T13:44:20;13.00;;;7.70;;
69197;SDS011;56311;50.298;8.514;2023-03-01T13:46:48;11.18;;;7.00;;
69197;SDS011;56311;50.298;8.514;2023-03-01T13:49:16;12.55;;;7.10;;
69197;SDS011;56311;50.298;8.514;2023-03-01T13:51:44;11.63;;;7.32;;
69197;SDS011;56311;50.298;8.514;2023-03-01T13:54:12;13.45;;;7.65;;
69197;SDS011;56311;50.298;8.514;2023-03-01T13:56:40;10.85;;;6.95;;
69197;SDS011;56311;50.298;8.514;2023-03-01T13:59:12;10.50;;;6.80;;
69197;SDS011;56311;50.298;8.514;2023-03-01T14:01:40;14.57;;;7.40;;
69197;SDS011;56311;50.298;8.514;2023-03-01T14:04:19;14.10;;;7.57;;
69197;SDS011;56311;50.298;8.514;2023-03-01T14:06:48;13.55;;;7.65;;
69197;SDS011;56311;50.298;8.514;2023-03-01T14:09:16;11.52;;;6.70;;
69197;SDS011;56311;50.298;8.514;2023-03-01T14:11:50;12.80;;;7.10;;
69197;SDS011;56311;50.298;8.514;2023-03-01T14:17:05;11.07;;;7.00;;
69197;SDS011;56311;50.298;8.514;2023-03-01T14:19:36;13.52;;;7.65;;
69197;SDS011;56311;50.298;8.514;2023-03-01T14:22:10;10.57;;;7.13;;
69197;SDS011;56311;50.298;8.514;2023-03-01T14:24:40;10.45;;;7.03;;
69197;SDS011;56311;50.298;8.514;2023-03-01T14:27:11;11.93;;;6.90;;
69197;SDS011;56311;50.298;8.514;2023-03-01T14:29:38;12.07;;;7.25;;
69197;SDS011;56311;50.298;8.514;2023-03-01T14:32:09;11.18;;;6.53;;
69197;SDS011;56311;50.298;8.514;2023-03-01T14:34:42;10.40;;;6.85;;
69197;SDS011;56311;50.298;8.514;2023-03-01T14:37:11;11.43;;;7.25;;
69197;SDS011;56311;50.298;8.514;2023-03-01T14:39:38;10.73;;;7.22;;
69197;SDS011;56311;50.298;8.514;2023-03-01T14:42:04;12.35;;;7.57;;
69197;SDS011;56311;50.298;8.514;2023-03-01T14:44:41;12.30;;;7.40;;
69197;SDS011;56311;50.298;8.514;2023-03-01T14:47:10;13.48;;;7.85;;
69197;SDS011;56311;50.298;8.514;2023-03-01T14:49:37;11.85;;;7.50;;
69197;SDS011;56311;50.298;8.514;2023-03-01T14:52:05;14.30;;;7.30;;
69197;SDS011;56311;50.298;8.514;2023-03-01T14:54:35;11.93;;;6.97;;
69197;SDS011;56311;50.298;8.514;2023-03-01T14:57:02;13.55;;;7.78;;
69197;SDS011;56311;50.298;8.514;2023-03-01T14:59:29;11.68;;;7.00;;